Time;durP1;ratioP1;P1;durP2;ratioP2;P2;SDS_P1;SDS_P2;PMS_P1;PMS_P2;Temp;Humidity;BMP_temperature;BMP_pressure;BME280_temperature;BME280_humidity;BME280_pressure;Samples;Min_cycle;Max_cycle;Signal;HPM_P1;HPM_P2
2022/05/26 00:01:37;;;;;;;;;;;19.40;66.30;;;;;;5074143;28;1245;-73
2022/05/26 00:04:03;;;;;;;;;;;19.40;66.30;;;;;;5073533;28;1325;-74
2022/05/26 00:06:29;;;;;;;;;;;19.40;66.30;;;;;;5070047;28;1883;-73
2022/05/26 00:08:55;;;;;;;;;;;19.40;66.30;;;;;;5068720;28;1961;-73
2022/05/26 00:11:21;;;;;;;;;;;19.40;66.30;;;;;;5050282;28;1244;-73
2022/05/26 00:13:47;;;;;;;;;;;19.40;66.30;;;;;;5066538;28;1800;-73
2022/05/26 00:16:12;;;;;;;;;;;19.40;66.30;;;;;;5067532;28;1013;-73
2022/05/26 00:18:38;;;;;;;;;;;19.40;66.40;;;;;;5070229;28;1202;-72
2022/05/26 00:21:03;;;;;;;;;;;19.40;66.30;;;;;;5064556;28;1309;-73
2022/05/26 00:23:29;;;;;;;;;;;19.40;66.30;;;;;;5070876;28;1385;-73
2022/05/26 00:25:54;;;;;;;;;;;19.40;66.30;;;;;;5068645;28;1234;-72
2022/05/26 00:28:19;;;;;;;;;;;19.40;66.40;;;;;;5068895;28;1894;-71
2022/05/26 00:30:45;;;;;;;;;;;19.40;66.40;;;;;;5068779;28;1808;-73
2022/05/26 00:33:11;;;;;;;;;;;19.40;66.30;;;;;;5069481;28;1302;-73
2022/05/26 00:35:36;;;;;;;;;;;19.40;66.40;;;;;;5068357;28;1176;-73
2022/05/26 00:38:03;;;;;;;;;;;19.40;66.30;;;;;;5070862;28;2578;-72
2022/05/26 00:40:28;;;;;;;;;;;19.40;66.40;;;;;;5065890;28;1174;-72
2022/05/26 00:42:53;;;;;;;;;;;19.40;66.40;;;;;;5070819;28;1451;-72
2022/05/26 00:45:19;;;;;;;;;;;19.40;66.40;;;;;;5067578;28;1745;-73
2022/05/26 00:47:44;;;;;;;;;;;19.40;66.40;;;;;;5074673;28;1902;-74
2022/05/26 00:50:20;;;;;;;;;;;19.40;66.40;;;;;;5073109;28;1085;-74
2022/05/26 00:52:53;;;;;;;;;;;19.40;66.40;;;;;;5073342;28;1339;-74
2022/05/26 00:55:22;;;;;;;;;;;19.40;66.40;;;;;;5073096;28;1327;-74
2022/05/26 00:57:52;;;;;;;;;;;19.40;66.40;;;;;;5073380;28;1281;-74
2022/05/26 01:00:21;;;;;;;;;;;19.40;66.40;;;;;;5074346;28;1269;-74
2022/05/26 01:02:59;;;;;;;;;;;19.40;66.40;;;;;;5074494;28;1145;-73
2022/05/26 01:05:26;;;;;;;;;;;19.40;66.40;;;;;;5062539;23;3887;-77
2022/05/26 01:07:52;;;;;;;;;;;19.40;66.40;;;;;;5043610;28;1898;-78
2022/05/26 01:10:17;;;;;;;;;;;19.40;66.40;;;;;;5046512;28;2114;-77
2022/05/26 01:12:43;;;;;;;;;;;19.40;66.40;;;;;;4999757;28;1268;-78
2022/05/26 01:15:09;;;;;;;;;;;19.40;66.40;;;;;;5031279;28;1153;-77
2022/05/26 01:17:39;;;;;;;;;;;19.40;66.40;;;;;;5044895;28;1158;-77
2022/05/26 01:20:13;;;;;;;;;;;19.40;66.40;;;;;;5005323;28;1382;-77
2022/05/26 01:23:02;;;;;;;;;;;19.40;66.40;;;;;;5033387;28;1318;-77
2022/05/26 01:25:46;;;;;;;;;;;19.40;66.40;;;;;;5014406;28;846;-77
2022/05/26 01:28:30;;;;;;;;;;;19.40;66.40;;;;;;5053198;28;1917;-77
2022/05/26 01:31:06;;;;;;;;;;;19.40;66.40;;;;;;5052798;28;1288;-77
2022/05/26 01:33:55;;;;;;;;;;;19.40;66.40;;;;;;5004338;28;1032;-77
2022/05/26 01:36:24;;;;;;;;;;;19.40;66.40;;;;;;4975582;28;1200;-77
2022/05/26 01:39:02;;;;;;;;;;;19.40;66.40;;;;;;5025903;28;1095;-77
2022/05/26 01:41:27;;;;;;;;;;;19.40;66.40;;;;;;5017130;28;1287;-78
2022/05/26 01:44:11;;;;;;;;;;;19.40;66.40;;;;;;5049702;28;1199;-78
2022/05/26 01:46:43;;;;;;;;;;;19.40;66.40;;;;;;5034290;28;1282;-78
2022/05/26 01:49:22;;;;;;;;;;;19.40;66.40;;;;;;5037979;28;1907;-78
2022/05/26 01:51:59;;;;;;;;;;;19.40;66.40;;;;;;5021985;28;1227;-78
2022/05/26 01:54:32;;;;;;;;;;;19.40;66.40;;;;;;5038671;28;1167;-79
2022/05/26 01:57:05;;;;;;;;;;;19.40;66.40;;;;;;5052450;28;1115;-78
2022/05/26 01:59:32;;;;;;;;;;;19.40;66.40;;;;;;5034199;28;1075;-78
2022/05/26 02:02:05;;;;;;;;;;;19.40;66.40;;;;;;5022023;28;1231;-78
2022/05/26 02:04:38;;;;;;;;;;;19.40;66.50;;;;;;5031677;28;1377;-79
2022/05/26 02:07:06;;;;;;;;;;;19.40;66.40;;;;;;5021297;28;1953;-77
2022/05/26 02:09:34;;;;;;;;;;;19.40;66.50;;;;;;5027122;28;1534;-78
2022/05/26 02:12:19;;;;;;;;;;;19.40;66.50;;;;;;5031754;28;1315;-78
2022/05/26 02:14:45;;;;;;;;;;;19.40;66.50;;;;;;5018252;28;1128;-77
2022/05/26 02:17:18;;;;;;;;;;;19.40;66.50;;;;;;5025312;28;1095;-77
2022/05/26 02:19:51;;;;;;;;;;;19.40;66.50;;;;;;5033132;28;1323;-76
2022/05/26 02:22:17;;;;;;;;;;;19.40;66.40;;;;;;5017799;28;1284;-77
2022/05/26 02:24:47;;;;;;;;;;;19.40;66.50;;;;;;5049027;28;1171;-77
2022/05/26 02:27:13;;;;;;;;;;;19.40;66.40;;;;;;5027382;28;1966;-77
2022/05/26 02:29:59;;;;;;;;;;;19.40;66.50;;;;;;5049635;28;1068;-78
2022/05/26 02:32:26;;;;;;;;;;;19.40;66.40;;;;;;5023686;28;1369;-78
2022/05/26 02:34:52;;;;;;;;;;;19.40;66.40;;;;;;5036995;28;1277;-78
2022/05/26 02:37:17;;;;;;;;;;;19.40;66.50;;;;;;5025771;28;1303;-77
2022/05/26 02:39:43;;;;;;;;;;;19.40;66.40;;;;;;5036406;28;1169;-76
2022/05/26 02:42:08;;;;;;;;;;;19.40;66.50;;;;;;5020068;28;1457;-77
2022/05/26 02:44:34;;;;;;;;;;;19.40;66.40;;;;;;5019389;28;1312;-77
2022/05/26 02:47:05;;;;;;;;;;;19.40;66.50;;;;;;5007019;28;1953;-77
2022/05/26 02:49:39;;;;;;;;;;;19.40;66.40;;;;;;5027786;28;1055;-77
2022/05/26 02:52:08;;;;;;;;;;;19.40;66.40;;;;;;5036731;28;1209;-78
2022/05/26 02:54:43;;;;;;;;;;;19.40;66.40;;;;;;5053653;28;1259;-78
2022/05/26 02:57:14;;;;;;;;;;;19.40;66.50;;;;;;5020720;28;1249;-78
2022/05/26 02:59:55;;;;;;;;;;;19.40;66.50;;;;;;5036098;28;1382;-77
2022/05/26 03:02:23;;;;;;;;;;;19.40;66.50;;;;;;5030634;28;1282;-77
2022/05/26 03:04:50;;;;;;;;;;;19.40;66.50;;;;;;5015936;28;1060;-78
2022/05/26 03:07:19;;;;;;;;;;;19.40;66.50;;;;;;5035170;28;1902;-78
2022/05/26 03:09:44;;;;;;;;;;;19.40;66.50;;;;;;5035712;28;1207;-77
2022/05/26 03:12:29;;;;;;;;;;;19.40;66.50;;;;;;5005584;28;1155;-76
2022/05/26 03:14:54;;;;;;;;;;;19.40;66.50;;;;;;5027732;28;1187;-77
2022/05/26 03:17:20;;;;;;;;;;;19.40;66.50;;;;;;5051887;28;1262;-77
2022/05/26 03:19:45;;;;;;;;;;;19.40;66.50;;;;;;5015503;28;1319;-77
2022/05/26 03:22:11;;;;;;;;;;;19.40;66.50;;;;;;5027336;28;1284;-78
2022/05/26 03:24:36;;;;;;;;;;;19.40;66.50;;;;;;5021082;28;1278;-78
2022/05/26 03:27:02;;;;;;;;;;;19.40;66.50;;;;;;5016291;28;1961;-78
2022/05/26 03:29:27;;;;;;;;;;;19.40;66.50;;;;;;5052535;28;1176;-77
2022/05/26 03:31:53;;;;;;;;;;;19.40;66.50;;;;;;5019081;28;1261;-78
2022/05/26 03:42:31;;;;;;;;;;;19.40;66.50;;;;;;5039430;28;1143;-77
2022/05/26 03:44:57;;;;;;;;;;;19.40;66.50;;;;;;5036158;28;1283;-77
2022/05/26 03:47:22;;;;;;;;;;;19.40;66.50;;;;;;5018801;28;1965;-77
2022/05/26 03:49:48;;;;;;;;;;;19.40;66.50;;;;;;5018670;28;1166;-77
2022/05/26 03:52:14;;;;;;;;;;;19.40;66.50;;;;;;5018132;28;1228;-77
2022/05/26 03:54:40;;;;;;;;;;;19.40;66.50;;;;;;5019484;28;1275;-76
2022/05/26 03:57:06;;;;;;;;;;;19.40;66.50;;;;;;5052608;28;1127;-78
2022/05/26 03:59:33;;;;;;;;;;;19.40;66.50;;;;;;5028784;28;1323;-78
2022/05/26 04:01:59;;;;;;;;;;;19.40;66.50;;;;;;5024845;28;1417;-77
2022/05/26 04:04:24;;;;;;;;;;;19.40;66.50;;;;;;5030280;28;1291;-76
2022/05/26 04:06:50;;;;;;;;;;;19.40;66.50;;;;;;5021026;28;1381;-78
2022/05/26 04:09:16;;;;;;;;;;;19.40;66.50;;;;;;5021914;28;1963;-77
2022/05/26 04:11:41;;;;;;;;;;;19.40;66.50;;;;;;5034181;28;1288;-77
2022/05/26 04:14:07;;;;;;;;;;;19.40;66.50;;;;;;5007259;28;1069;-77
2022/05/26 04:16:32;;;;;;;;;;;19.40;66.50;;;;;;5050839;28;1135;-76
2022/05/26 04:18:57;;;;;;;;;;;19.40;66.50;;;;;;5051655;28;1187;-77
2022/05/26 04:21:23;;;;;;;;;;;19.40;66.50;;;;;;5020744;28;1605;-79
2022/05/26 04:23:48;;;;;;;;;;;19.40;66.50;;;;;;5018760;28;1112;-77
2022/05/26 04:26:14;;;;;;;;;;;19.40;66.50;;;;;;5049783;28;1119;-77
2022/05/26 04:28:39;;;;;;;;;;;19.40;66.50;;;;;;5002251;28;1899;-77
2022/05/26 04:31:05;;;;;;;;;;;19.40;66.50;;;;;;5032542;28;1276;-77
2022/05/26 04:33:31;;;;;;;;;;;19.40;66.50;;;;;;5021613;28;1195;-78
2022/05/26 04:35:57;;;;;;;;;;;19.40;66.50;;;;;;5037564;28;1302;-78
2022/05/26 04:38:22;;;;;;;;;;;19.40;66.50;;;;;;5021946;28;1123;-77
2022/05/26 04:40:57;;;;;;;;;;;19.40;66.50;;;;;;5021013;28;1339;-78
2022/05/26 04:43:23;;;;;;;;;;;19.40;66.50;;;;;;5029250;28;1290;-77
2022/05/26 04:45:48;;;;;;;;;;;19.40;66.50;;;;;;5036281;28;1144;-77
2022/05/26 04:48:16;;;;;;;;;;;19.40;66.60;;;;;;5022251;28;1943;-77
2022/05/26 04:50:42;;;;;;;;;;;19.40;66.50;;;;;;5025122;28;1292;-78
2022/05/26 04:53:08;;;;;;;;;;;19.40;66.60;;;;;;5054779;28;1215;-78
2022/05/26 04:55:33;;;;;;;;;;;19.40;66.50;;;;;;5054764;28;1223;-78
2022/05/26 04:57:59;;;;;;;;;;;19.40;66.60;;;;;;5022135;28;1128;-77
2022/05/26 05:00:24;;;;;;;;;;;19.40;66.50;;;;;;5021403;28;1296;-77
2022/05/26 05:02:50;;;;;;;;;;;19.40;66.60;;;;;;5029449;28;1104;-77
2022/05/26 05:05:15;;;;;;;;;;;19.40;66.50;;;;;;5033224;28;1176;-77
2022/05/26 05:07:40;;;;;;;;;;;19.40;66.50;;;;;;5037293;28;1894;-78
2022/05/26 05:10:06;;;;;;;;;;;19.40;66.50;;;;;;5021961;28;1242;-78
2022/05/26 05:12:32;;;;;;;;;;;19.40;66.60;;;;;;5030303;28;1324;-78
2022/05/26 05:14:57;;;;;;;;;;;19.40;66.50;;;;;;5028061;28;1134;-76
2022/05/26 05:17:23;;;;;;;;;;;19.40;66.50;;;;;;5024088;28;1216;-77
2022/05/26 05:19:49;;;;;;;;;;;19.40;66.50;;;;;;5021200;28;1356;-77
2022/05/26 05:22:17;;;;;;;;;;;19.40;66.50;;;;;;5021223;28;1288;-77
2022/05/26 05:24:48;;;;;;;;;;;19.40;66.50;;;;;;5035499;28;1188;-77
2022/05/26 05:27:18;;;;;;;;;;;19.40;66.50;;;;;;5036695;28;1906;-78
2022/05/26 05:29:44;;;;;;;;;;;19.40;66.50;;;;;;5036446;28;1327;-78
2022/05/26 05:32:16;;;;;;;;;;;19.40;66.50;;;;;;5012491;28;1299;-78
2022/05/26 05:34:43;;;;;;;;;;;19.40;66.60;;;;;;5024388;28;1361;-78
2022/05/26 05:37:09;;;;;;;;;;;19.40;66.60;;;;;;5029638;28;1176;-78
2022/05/26 05:39:34;;;;;;;;;;;19.40;66.50;;;;;;5026067;28;1124;-78
2022/05/26 05:42:00;;;;;;;;;;;19.40;66.60;;;;;;5042389;28;1284;-78
2022/05/26 05:44:25;;;;;;;;;;;19.40;66.50;;;;;;5039208;28;1110;-78
2022/05/26 05:46:54;;;;;;;;;;;19.40;66.50;;;;;;5035405;28;1155;-78
2022/05/26 05:49:20;;;;;;;;;;;19.40;66.60;;;;;;5044128;28;1899;-78
2022/05/26 05:51:45;;;;;;;;;;;19.40;66.60;;;;;;5043951;28;1246;-78
2022/05/26 05:54:11;;;;;;;;;;;19.40;66.50;;;;;;5026845;28;1334;-78
2022/05/26 05:56:36;;;;;;;;;;;19.40;66.50;;;;;;5016127;28;1269;-78
2022/05/26 05:59:01;;;;;;;;;;;19.40;66.60;;;;;;5039409;28;1156;-78
2022/05/26 06:01:27;;;;;;;;;;;19.40;66.60;;;;;;5037602;28;1205;-78
2022/05/26 06:03:52;;;;;;;;;;;19.40;66.60;;;;;;5038340;28;1174;-77
2022/05/26 06:06:18;;;;;;;;;;;19.40;66.60;;;;;;5027302;28;1849;-78
2022/05/26 06:08:44;;;;;;;;;;;19.40;66.60;;;;;;5024440;28;1953;-76
2022/05/26 06:11:09;;;;;;;;;;;19.40;66.60;;;;;;5039163;28;1366;-79
2022/05/26 06:13:35;;;;;;;;;;;19.40;66.60;;;;;;5019902;28;1178;-76
2022/05/26 06:16:00;;;;;;;;;;;19.40;66.60;;;;;;5003480;28;1420;-78
2022/05/26 06:18:26;;;;;;;;;;;19.40;66.60;;;;;;5004748;28;1795;-79
2022/05/26 06:20:59;;;;;;;;;;;19.40;66.60;;;;;;5007566;28;1423;-78
2022/05/26 06:23:24;;;;;;;;;;;19.40;66.60;;;;;;5018181;28;1191;-78
2022/05/26 06:25:49;;;;;;;;;;;19.40;66.60;;;;;;5025037;28;1205;-79
2022/05/26 06:30:59;;;;;;;;;;;19.40;66.60;;;;;;5019311;28;1410;-78
2022/05/26 06:38:55;;;;;;;;;;;19.40;66.60;;;;;;5041689;28;1087;-78
2022/05/26 06:44:05;;;;;;;;;;;19.40;66.70;;;;;;5039678;28;1063;-77
2022/05/26 06:46:31;;;;;;;;;;;19.40;66.60;;;;;;5053368;28;1179;-78
2022/05/26 06:48:56;;;;;;;;;;;19.40;66.60;;;;;;5016337;28;1920;-78
2022/05/26 06:51:26;;;;;;;;;;;19.40;66.60;;;;;;5017907;28;1289;-78
2022/05/26 06:53:51;;;;;;;;;;;19.40;66.60;;;;;;5021074;28;1237;-78
2022/05/26 06:56:17;;;;;;;;;;;19.40;66.60;;;;;;5028912;28;1217;-78
2022/05/26 06:58:42;;;;;;;;;;;19.40;66.70;;;;;;5018091;28;1214;-76
2022/05/26 07:01:08;;;;;;;;;;;19.40;66.60;;;;;;5052487;28;1282;-76
2022/05/26 07:03:34;;;;;;;;;;;19.40;66.70;;;;;;5037950;28;1182;-77
2022/05/26 07:06:00;;;;;;;;;;;19.40;66.70;;;;;;5053452;22;3654;-73
2022/05/26 07:08:25;;;;;;;;;;;19.40;66.70;;;;;;5032108;28;1969;-73
2022/05/26 07:10:52;;;;;;;;;;;19.40;66.60;;;;;;5032205;28;1064;-73
2022/05/26 07:13:18;;;;;;;;;;;19.40;66.60;;;;;;5030728;28;1158;-73
2022/05/26 07:15:43;;;;;;;;;;;19.40;66.60;;;;;;5021047;28;1325;-74
2022/05/26 07:18:08;;;;;;;;;;;19.40;66.70;;;;;;5035285;28;971;-73
2022/05/26 07:20:36;;;;;;;;;;;19.40;66.70;;;;;;5031994;28;1347;-72
2022/05/26 07:23:02;;;;;;;;;;;19.40;66.60;;;;;;5031624;28;1302;-72
2022/05/26 07:25:28;;;;;;;;;;;19.40;66.60;;;;;;5032086;28;1288;-72
2022/05/26 07:27:53;;;;;;;;;;;19.40;66.60;;;;;;5044189;28;1965;-72
2022/05/26 07:30:18;;;;;;;;;;;19.40;66.60;;;;;;5035985;28;1334;-72
2022/05/26 07:32:44;;;;;;;;;;;19.40;66.60;;;;;;5063920;22;3684;-69
2022/05/26 07:35:09;;;;;;;;;;;19.40;66.60;;;;;;5074121;28;1829;-70
2022/05/26 07:43:08;;;;;;;;;;;19.40;66.80;;;;;;5073154;28;1457;-69
2022/05/26 07:45:34;;;;;;;;;;;19.40;66.70;;;;;;5076995;22;2665;-71
2022/05/26 07:47:59;;;;;;;;;;;19.40;66.70;;;;;;5066581;28;1959;-71
2022/05/26 07:50:25;;;;;;;;;;;19.40;66.70;;;;;;5074511;28;1313;-70
2022/05/26 07:52:50;;;;;;;;;;;19.40;67.50;;;;;;5075759;28;1197;-71
2022/05/26 07:55:18;;;;;;;;;;;19.40;66.70;;;;;;5075637;28;1287;-71
2022/05/26 07:57:43;;;;;;;;;;;19.40;66.70;;;;;;5091079;28;1290;-71
2022/05/26 08:00:09;;;;;;;;;;;19.40;66.70;;;;;;5090844;28;1554;-71
2022/05/26 08:02:39;;;;;;;;;;;19.40;66.70;;;;;;5075876;28;1325;-70
2022/05/26 08:05:05;;;;;;;;;;;19.40;66.70;;;;;;5079195;28;1314;-72
2022/05/26 08:07:34;;;;;;;;;;;19.40;66.70;;;;;;5074680;28;1918;-71
2022/05/26 08:09:59;;;;;;;;;;;19.40;66.70;;;;;;5074058;28;1370;-71
2022/05/26 08:12:25;;;;;;;;;;;19.40;66.70;;;;;;5056269;28;1250;-72
2022/05/26 08:14:50;;;;;;;;;;;19.40;66.70;;;;;;5074567;28;1400;-73
2022/05/26 08:17:18;;;;;;;;;;;19.40;66.70;;;;;;5074865;28;1246;-74
2022/05/26 08:19:43;;;;;;;;;;;19.40;66.70;;;;;;5073134;28;1343;-71
2022/05/26 08:22:09;;;;;;;;;;;19.40;66.70;;;;;;5072948;28;1738;-70
2022/05/26 08:24:34;;;;;;;;;;;19.40;66.70;;;;;;5074851;28;1369;-71
2022/05/26 08:27:00;;;;;;;;;;;19.40;66.70;;;;;;5073231;28;1199;-73
2022/05/26 08:29:25;;;;;;;;;;;19.40;66.70;;;;;;5074513;28;1965;-69
2022/05/26 08:31:51;;;;;;;;;;;19.40;66.70;;;;;;5074490;28;1278;-71
2022/05/26 08:34:17;;;;;;;;;;;19.40;66.70;;;;;;5070489;28;1398;-71
2022/05/26 08:36:42;;;;;;;;;;;19.40;66.70;;;;;;5073422;28;1642;-71
2022/05/26 08:39:07;;;;;;;;;;;19.40;66.70;;;;;;5073261;28;1227;-73
2022/05/26 08:41:40;;;;;;;;;;;19.40;66.70;;;;;;5074501;28;1230;-69
2022/05/26 08:44:06;;;;;;;;;;;19.40;66.70;;;;;;5070972;28;1271;-69
2022/05/26 08:46:32;;;;;;;;;;;19.40;66.70;;;;;;5074163;28;1336;-71
2022/05/26 08:49:01;;;;;;;;;;;19.40;66.70;;;;;;5072960;28;1969;-72
2022/05/26 08:51:30;;;;;;;;;;;19.40;66.70;;;;;;5074134;28;1223;-72
2022/05/26 08:53:56;;;;;;;;;;;19.40;66.70;;;;;;5073047;28;1398;-74
2022/05/26 08:56:22;;;;;;;;;;;19.40;66.70;;;;;;5050441;28;1296;-72
2022/05/26 08:58:47;;;;;;;;;;;19.40;66.70;;;;;;5072819;28;1239;-70
2022/05/26 09:01:15;;;;;;;;;;;19.40;66.70;;;;;;5072705;28;1219;-70
2022/05/26 09:03:41;;;;;;;;;;;19.40;66.70;;;;;;5073941;28;1392;-70
2022/05/26 09:06:11;;;;;;;;;;;19.40;66.60;;;;;;5073908;28;1333;-71
2022/05/26 09:14:25;;;;;;;;;;;19.40;66.70;;;;;;5073356;28;1326;-70
2022/05/26 09:16:54;;;;;;;;;;;19.40;66.70;;;;;;5073809;28;1288;-71
2022/05/26 09:19:20;;;;;;;;;;;19.40;66.70;;;;;;5074247;28;1086;-70
2022/05/26 09:21:46;;;;;;;;;;;19.40;66.70;;;;;;5073703;28;1617;-70
2022/05/26 09:24:15;;;;;;;;;;;19.40;66.70;;;;;;5089345;28;1282;-71
2022/05/26 09:26:41;;;;;;;;;;;19.40;66.70;;;;;;5073244;28;1300;-71
2022/05/26 09:29:07;;;;;;;;;;;19.40;66.70;;;;;;5072049;28;1905;-71
2022/05/26 09:31:33;;;;;;;;;;;19.40;66.70;;;;;;5072045;28;1253;-71
2022/05/26 09:33:59;;;;;;;;;;;19.40;66.70;;;;;;5055255;28;1540;-70
2022/05/26 09:36:25;;;;;;;;;;;19.40;66.70;;;;;;5072008;28;1288;-70
2022/05/26 09:38:51;;;;;;;;;;;19.40;66.70;;;;;;5089113;28;1368;-71
2022/05/26 09:41:17;;;;;;;;;;;19.40;66.70;;;;;;5072826;28;1243;-71
2022/05/26 09:43:46;;;;;;;;;;;19.40;66.70;;;;;;5073309;28;1248;-70
2022/05/26 09:46:12;;;;;;;;;;;19.40;66.70;;;;;;5052842;28;1352;-70
2022/05/26 09:48:37;;;;;;;;;;;19.40;66.70;;;;;;5063732;28;1895;-71
2022/05/26 09:51:10;;;;;;;;;;;19.40;66.70;;;;;;5072342;28;1287;-70
2022/05/26 09:53:40;;;;;;;;;;;19.40;66.70;;;;;;5071986;28;1245;-71
2022/05/26 09:56:06;;;;;;;;;;;19.40;66.70;;;;;;5071620;28;1312;-70
2022/05/26 09:58:37;;;;;;;;;;;19.40;66.70;;;;;;5071801;28;1300;-71
2022/05/26 10:01:10;;;;;;;;;;;19.40;66.70;;;;;;5071215;28;1258;-71
2022/05/26 10:03:36;;;;;;;;;;;19.40;66.70;;;;;;5072863;28;1291;-71
2022/05/26 10:06:20;;;;;;;;;;;19.40;66.70;;;;;;5072910;28;1309;-71
2022/05/26 10:08:55;;;;;;;;;;;19.40;66.70;;;;;;5070764;28;1969;-71
2022/05/26 10:11:21;;;;;;;;;;;19.40;66.70;;;;;;5070724;28;1296;-71
2022/05/26 10:13:48;;;;;;;;;;;19.40;66.60;;;;;;5056351;28;1705;-71
2022/05/26 10:16:13;;;;;;;;;;;19.40;66.60;;;;;;5069074;28;1569;-70
2022/05/26 10:18:42;;;;;;;;;;;19.40;66.70;;;;;;5072681;28;1601;-70
2022/05/26 10:21:07;;;;;;;;;;;19.40;66.70;;;;;;5072516;28;1662;-71
2022/05/26 10:23:33;;;;;;;;;;;19.40;66.70;;;;;;5072685;28;1630;-71
2022/05/26 10:26:01;;;;;;;;;;;19.40;66.70;;;;;;5072590;28;1351;-71
2022/05/26 10:28:41;;;;;;;;;;;19.40;66.70;;;;;;5072889;28;1961;-72
2022/05/26 10:31:13;;;;;;;;;;;19.40;66.70;;;;;;5071586;28;1711;-72
2022/05/26 10:34:02;;;;;;;;;;;19.40;66.70;;;;;;5071670;28;1335;-71
2022/05/26 10:36:37;;;;;;;;;;;19.40;66.70;;;;;;5071721;28;1345;-72
2022/05/26 10:39:07;;;;;;;;;;;19.40;66.70;;;;;;5071261;28;1626;-70
2022/05/26 10:41:34;;;;;;;;;;;19.40;66.70;;;;;;5049170;28;1216;-71
2022/05/26 10:44:02;;;;;;;;;;;19.40;66.70;;;;;;5071214;28;1385;-69
2022/05/26 10:46:27;;;;;;;;;;;19.40;66.70;;;;;;5071731;28;1914;-70
2022/05/26 10:48:53;;;;;;;;;;;19.40;66.70;;;;;;5071377;28;1917;-72
2022/05/26 10:51:26;;;;;;;;;;;19.40;66.70;;;;;;5071732;28;1194;-70
2022/05/26 10:54:10;;;;;;;;;;;19.40;66.70;;;;;;5072779;28;1238;-70
2022/05/26 10:56:39;;;;;;;;;;;19.40;66.70;;;;;;5072156;28;1306;-72
2022/05/26 10:59:24;;;;;;;;;;;19.40;66.70;;;;;;5071099;28;1382;-72
2022/05/26 11:01:59;;;;;;;;;;;19.40;66.60;;;;;;5070283;28;1295;-70
2022/05/26 11:04:30;;;;;;;;;;;19.40;66.60;;;;;;5074207;28;1206;-73
2022/05/26 11:06:56;;;;;;;;;;;19.40;66.70;;;;;;5075175;28;1243;-73
2022/05/26 11:09:26;;;;;;;;;;;19.40;66.70;;;;;;5075271;28;1890;-70
2022/05/26 11:11:57;;;;;;;;;;;19.40;66.70;;;;;;5071496;28;1316;-71
2022/05/26 11:17:22;;;;;;;;;;;19.40;66.70;;;;;;5076632;28;1425;-73
2022/05/26 11:20:02;;;;;;;;;;;19.40;67.40;;;;;;5073249;28;1555;-73
2022/05/26 11:22:27;;;;;;;;;;;19.40;66.70;;;;;;5074830;28;1272;-72
2022/05/26 11:24:53;;;;;;;;;;;19.40;66.70;;;;;;5076160;28;1385;-72
2022/05/26 11:27:24;;;;;;;;;;;19.40;66.70;;;;;;5074689;28;1910;-73
2022/05/26 11:29:51;;;;;;;;;;;19.40;66.60;;;;;;5076126;28;1381;-72
2022/05/26 11:38:21;;;;;;;;;;;19.40;66.70;;;;;;5073849;28;1291;-73
2022/05/26 11:40:52;;;;;;;;;;;19.40;66.70;;;;;;5073955;28;1380;-72
2022/05/26 11:43:30;;;;;;;;;;;19.40;66.70;;;;;;5074488;28;1282;-72
2022/05/26 11:45:57;;;;;;;;;;;19.40;66.70;;;;;;5074640;28;1299;-72
2022/05/26 11:48:32;;;;;;;;;;;19.40;66.70;;;;;;5075799;28;1981;-72
2022/05/26 11:50:57;;;;;;;;;;;19.40;66.70;;;;;;5075632;28;1118;-72
2022/05/26 11:53:29;;;;;;;;;;;19.40;66.70;;;;;;5074085;28;1302;-72
2022/05/26 11:55:54;;;;;;;;;;;19.40;66.70;;;;;;5075039;28;1357;-72
2022/05/26 11:58:26;;;;;;;;;;;19.40;66.70;;;;;;5077890;28;1273;-72
2022/05/26 12:01:08;;;;;;;;;;;19.40;66.70;;;;;;5075388;28;1230;-72
2022/05/26 12:03:34;;;;;;;;;;;19.40;66.70;;;;;;5075604;28;1273;-73
2022/05/26 12:06:04;;;;;;;;;;;19.40;67.40;;;;;;5073982;28;1327;-73
2022/05/26 12:08:34;;;;;;;;;;;19.40;66.70;;;;;;5075274;28;1914;-73
2022/05/26 12:11:01;;;;;;;;;;;19.40;66.70;;;;;;5075082;28;1257;-72
2022/05/26 12:13:27;;;;;;;;;;;19.40;66.70;;;;;;5074767;28;1265;-72
2022/05/26 12:16:05;;;;;;;;;;;19.40;66.70;;;;;;5086367;28;2099;-72
2022/05/26 12:18:38;;;;;;;;;;;19.40;66.70;;;;;;5070717;28;1183;-73
2022/05/26 12:21:11;;;;;;;;;;;19.40;66.70;;;;;;5069026;28;1324;-72
2022/05/26 12:23:37;;;;;;;;;;;19.40;66.70;;;;;;5066551;28;1474;-73
2022/05/26 12:26:22;;;;;;;;;;;19.40;66.70;;;;;;5071232;28;1905;-73
2022/05/26 12:28:47;;;;;;;;;;;19.40;66.70;;;;;;5071543;28;2138;-73
2022/05/26 12:31:13;;;;;;;;;;;19.40;66.70;;;;;;5088307;28;1911;-72
2022/05/26 12:33:47;;;;;;;;;;;19.40;66.70;;;;;;5062667;28;1912;-72
2022/05/26 12:36:18;;;;;;;;;;;19.40;66.70;;;;;;5067681;28;1967;-72
2022/05/26 12:38:44;;;;;;;;;;;19.40;66.70;;;;;;5078938;28;1149;-72
2022/05/26 12:41:16;;;;;;;;;;;19.40;66.70;;;;;;5054456;28;837;-73
2022/05/26 12:44:13;;;;;;;;;;;19.40;66.70;;;;;;5054868;28;852;-73
2022/05/26 12:46:43;;;;;;;;;;;19.40;66.70;;;;;;5031596;28;1421;-74
2022/05/26 12:49:17;;;;;;;;;;;19.40;66.70;;;;;;5054913;28;1894;-73
2022/05/26 12:51:43;;;;;;;;;;;19.40;66.70;;;;;;5062165;28;1063;-73
2022/05/26 12:54:10;;;;;;;;;;;19.40;66.70;;;;;;5054703;28;722;-73
2022/05/26 12:56:51;;;;;;;;;;;19.40;66.70;;;;;;5052867;28;1293;-73
2022/05/26 12:59:20;;;;;;;;;;;19.40;66.70;;;;;;5054348;28;907;-72
2022/05/26 13:01:46;;;;;;;;;;;19.40;66.70;;;;;;5052759;28;1019;-73
2022/05/26 13:04:14;;;;;;;;;;;19.40;66.70;;;;;;5053134;28;864;-72
2022/05/26 13:06:41;;;;;;;;;;;19.40;67.10;;;;;;5054186;28;1286;-73
2022/05/26 13:09:16;;;;;;;;;;;19.40;66.70;;;;;;5052882;28;1906;-73
2022/05/26 13:11:52;;;;;;;;;;;19.40;66.70;;;;;;5054220;28;1193;-72
2022/05/26 13:14:21;;;;;;;;;;;19.40;66.70;;;;;;5073672;28;986;-72
2022/05/26 13:16:46;;;;;;;;;;;19.40;66.70;;;;;;5066284;28;1334;-73
2022/05/26 13:19:11;;;;;;;;;;;19.40;66.70;;;;;;5059518;28;1158;-72
2022/05/26 13:21:37;;;;;;;;;;;19.40;66.70;;;;;;5052758;28;1298;-72
2022/05/26 13:24:03;;;;;;;;;;;19.40;66.70;;;;;;5053723;28;804;-72
2022/05/26 13:26:28;;;;;;;;;;;19.40;66.70;;;;;;5055182;28;1171;-73
2022/05/26 13:28:55;;;;;;;;;;;19.40;66.70;;;;;;5062991;28;2220;-73
2022/05/26 13:34:05;;;;;;;;;;;19.40;66.70;;;;;;5068901;28;2005;-74
2022/05/26 13:36:37;;;;;;;;;;;19.40;66.70;;;;;;5066375;28;1342;-72
2022/05/26 13:39:04;;;;;;;;;;;19.40;66.70;;;;;;5072194;28;1176;-72
2022/05/26 13:41:29;;;;;;;;;;;19.40;66.80;;;;;;5072993;28;1376;-73
2022/05/26 13:43:55;;;;;;;;;;;19.40;66.70;;;;;;5072053;28;1217;-73
2022/05/26 13:46:26;;;;;;;;;;;19.40;66.70;;;;;;5061228;22;3751;-75
2022/05/26 13:48:54;;;;;;;;;;;19.40;66.70;;;;;;5008529;28;1918;-76
2022/05/26 13:51:24;;;;;;;;;;;19.40;66.70;;;;;;5012438;28;975;-76
2022/05/26 13:53:51;;;;;;;;;;;19.40;66.70;;;;;;5012290;28;1208;-77
2022/05/26 13:56:29;;;;;;;;;;;19.40;66.70;;;;;;5028280;28;1221;-76
2022/05/26 13:58:56;;;;;;;;;;;19.40;66.70;;;;;;5012485;28;818;-76
2022/05/26 14:01:23;;;;;;;;;;;19.40;66.70;;;;;;5011825;28;1039;-77
2022/05/26 14:03:52;;;;;;;;;;;19.40;66.70;;;;;;5012133;28;825;-76
2022/05/26 14:06:20;;;;;;;;;;;19.40;66.70;;;;;;5012127;28;1296;-76
2022/05/26 14:08:47;;;;;;;;;;;19.40;66.70;;;;;;5015413;28;1894;-78
2022/05/26 14:11:31;;;;;;;;;;;19.40;66.70;;;;;;5012588;28;1167;-78
2022/05/26 14:14:11;;;;;;;;;;;19.40;66.80;;;;;;4995616;28;1003;-78
2022/05/26 14:16:36;;;;;;;;;;;19.40;66.70;;;;;;4992557;28;1385;-76
2022/05/26 14:19:01;;;;;;;;;;;19.40;66.80;;;;;;5003332;28;1183;-76
2022/05/26 14:21:28;;;;;;;;;;;19.40;66.70;;;;;;5027763;28;912;-78
2022/05/26 14:24:04;;;;;;;;;;;19.40;66.70;;;;;;5012242;28;1179;-74
2022/05/26 14:26:39;;;;;;;;;;;19.40;66.70;;;;;;5011629;28;1214;-74
2022/05/26 14:29:09;;;;;;;;;;;19.40;66.70;;;;;;5011728;28;1960;-74
2022/05/26 14:31:35;;;;;;;;;;;19.40;66.70;;;;;;5011505;28;876;-74
2022/05/26 14:34:19;;;;;;;;;;;19.40;66.70;;;;;;5011455;28;986;-74
2022/05/26 14:36:45;;;;;;;;;;;19.40;66.80;;;;;;5012929;28;1284;-74
2022/05/26 14:39:11;;;;;;;;;;;19.40;66.70;;;;;;5011448;28;1195;-74
2022/05/26 14:41:36;;;;;;;;;;;19.40;66.70;;;;;;5011242;28;892;-74
2022/05/26 14:44:02;;;;;;;;;;;19.40;66.70;;;;;;5011511;28;968;-74
2022/05/26 14:46:28;;;;;;;;;;;19.40;66.70;;;;;;5020841;28;1300;-74
2022/05/26 14:48:53;;;;;;;;;;;19.40;66.70;;;;;;5031187;28;2004;-74
2022/05/26 14:51:19;;;;;;;;;;;19.40;66.70;;;;;;5030685;28;770;-74
2022/05/26 14:56:28;;;;;;;;;;;19.40;66.70;;;;;;5031295;28;1314;-74
2022/05/26 14:58:54;;;;;;;;;;;19.40;66.70;;;;;;5031934;28;944;-74
2022/05/26 15:01:19;;;;;;;;;;;19.40;66.70;;;;;;5030752;28;933;-74
2022/05/26 15:03:45;;;;;;;;;;;19.40;66.70;;;;;;5031229;28;995;-74
2022/05/26 15:06:11;;;;;;;;;;;19.40;66.70;;;;;;5031905;28;1280;-74
2022/05/26 15:08:42;;;;;;;;;;;19.40;66.70;;;;;;5032239;28;1894;-75
2022/05/26 15:11:12;;;;;;;;;;;19.40;66.80;;;;;;5030768;28;1370;-73
2022/05/26 15:13:37;;;;;;;;;;;19.40;66.70;;;;;;5030965;28;1238;-73
2022/05/26 15:16:03;;;;;;;;;;;19.40;67.50;;;;;;5014559;28;1212;-74
2022/05/26 15:18:28;;;;;;;;;;;19.40;66.70;;;;;;5031130;28;1161;-74
2022/05/26 15:20:54;;;;;;;;;;;19.40;66.80;;;;;;5031474;28;680;-74
2022/05/26 15:23:19;;;;;;;;;;;19.40;66.70;;;;;;5030799;28;1259;-74